createdAt,value
2022-11-27T00:00:14.708Z,0.10
2022-11-27T00:01:14.695Z,0.20
2022-11-27T00:02:14.700Z,0.10
2022-11-27T00:03:14.853Z,0.20
2022-11-27T00:04:14.746Z,0.10
2022-11-27T00:05:14.668Z,0.20
2022-11-27T00:06:14.629Z,0.20
2022-11-27T00:07:14.690Z,0.20
2022-11-27T00:08:14.604Z,0.20
2022-11-27T00:09:14.609Z,0.10
2022-11-27T00:10:14.580Z,0.20
2022-11-27T00:11:14.584Z,0.10
2022-11-27T00:12:14.552Z,0.20
2022-11-27T00:13:14.542Z,0.10
2022-11-27T00:14:14.526Z,0.20
2022-11-27T00:15:17.184Z,0.10
2022-11-27T00:16:14.658Z,0.20
2022-11-27T00:17:14.490Z,0.10
2022-11-27T00:18:14.475Z,0.20
2022-11-27T00:19:14.463Z,0.10
2022-11-27T00:20:14.450Z,0.20
2022-11-27T00:21:14.463Z,0.10
2022-11-27T00:22:14.424Z,0.20
2022-11-27T00:23:14.414Z,0.20
2022-11-27T00:24:14.397Z,0.20
2022-11-27T00:25:14.387Z,0.20
2022-11-27T00:26:14.376Z,0.20
2022-11-27T00:27:14.361Z,0.20
2022-11-27T00:28:14.346Z,0.20
2022-11-27T00:30:14.324Z,0.10
2022-11-27T00:31:14.373Z,0.20
2022-11-27T00:32:14.295Z,0.10
2022-11-27T00:33:14.282Z,0.20
2022-11-27T00:34:14.269Z,0.10
2022-11-27T00:35:14.259Z,0.20
2022-11-27T00:36:14.244Z,0.10
2022-11-27T00:37:14.257Z,0.20
2022-11-27T00:38:14.218Z,0.10
2022-11-27T00:39:14.208Z,0.20
2022-11-27T00:40:14.192Z,0.10
2022-11-27T00:41:14.181Z,0.20
2022-11-27T00:42:14.167Z,0.10
2022-11-27T00:43:14.156Z,0.20
2022-11-27T00:44:14.142Z,0.10
2022-11-27T00:45:14.134Z,0.20
2022-11-27T00:46:14.306Z,0.20
2022-11-27T00:47:14.104Z,0.20
2022-11-27T00:48:14.090Z,0.10
2022-11-27T00:49:14.092Z,0.20
2022-11-27T00:50:14.064Z,0.20
2022-11-27T00:51:14.071Z,0.20
2022-11-27T00:52:14.039Z,0.20
2022-11-27T00:53:14.056Z,0.20
2022-11-27T00:54:14.013Z,0.20
2022-11-27T00:55:14.003Z,0.10
2022-11-27T00:56:13.988Z,0.20
2022-11-27T00:57:13.976Z,0.10
2022-11-27T00:58:13.961Z,0.20
2022-11-27T00:59:13.951Z,0.10
2022-11-27T01:00:13.951Z,0.20
2022-11-27T01:01:13.953Z,0.10
2022-11-27T01:02:13.988Z,0.20
2022-11-27T01:03:13.938Z,0.20
2022-11-27T01:04:13.887Z,0.20
2022-11-27T01:05:13.875Z,0.20
2022-11-27T01:06:13.859Z,0.20
2022-11-27T01:07:13.883Z,0.20
2022-11-27T01:08:13.832Z,0.20
2022-11-27T01:09:13.848Z,0.20
2022-11-27T01:10:13.807Z,0.10
2022-11-27T01:11:13.795Z,0.20
2022-11-27T01:12:13.782Z,0.20
2022-11-27T01:13:13.771Z,0.20
2022-11-27T01:14:13.756Z,0.20
2022-11-27T01:15:13.745Z,0.20
2022-11-27T01:16:13.808Z,0.20
2022-11-27T01:17:13.718Z,0.20
2022-11-27T01:18:13.704Z,0.10
2022-11-27T01:19:13.695Z,0.20
2022-11-27T01:20:13.678Z,0.20
2022-11-27T01:21:13.667Z,0.20
2022-11-27T01:22:13.653Z,0.20
2022-11-27T01:23:13.642Z,0.10
2022-11-27T01:24:13.627Z,0.10
2022-11-27T01:25:13.645Z,0.20
2022-11-27T01:26:13.601Z,0.20
2022-11-27T01:27:13.589Z,0.10
2022-11-27T01:28:13.574Z,0.20
2022-11-27T01:29:13.566Z,0.10
2022-11-27T01:31:13.632Z,0.20
2022-11-27T01:32:13.524Z,0.20
2022-11-27T01:33:13.512Z,0.10
2022-11-27T01:34:13.500Z,0.20
2022-11-27T01:35:13.490Z,0.20
2022-11-27T01:36:13.474Z,0.20
2022-11-27T01:37:13.464Z,0.20
2022-11-27T01:38:13.447Z,0.20
2022-11-27T01:39:13.443Z,0.20
2022-11-27T01:40:13.420Z,0.20
2022-11-27T01:41:13.433Z,0.20
2022-11-27T01:42:13.395Z,0.20
2022-11-27T01:43:13.386Z,0.20
2022-11-27T01:44:13.369Z,0.20
2022-11-27T01:45:13.358Z,0.20
2022-11-27T01:46:13.384Z,0.20
2022-11-27T01:47:13.335Z,0.20
2022-11-27T01:48:13.317Z,0.10
2022-11-27T01:49:13.307Z,0.20
2022-11-27T01:50:13.292Z,0.10
2022-11-27T01:51:13.286Z,0.20
2022-11-27T01:52:13.266Z,0.10
2022-11-27T01:53:13.257Z,0.20
2022-11-27T01:54:13.242Z,0.20
2022-11-27T01:55:13.230Z,0.10
2022-11-27T01:56:13.216Z,0.20
2022-11-27T01:57:13.233Z,0.20
2022-11-27T01:58:13.189Z,0.20
2022-11-27T01:59:13.178Z,0.10
2022-11-27T02:00:13.166Z,0.20
2022-11-27T02:01:13.153Z,0.20
2022-11-27T02:02:13.274Z,0.20
2022-11-27T02:03:13.163Z,0.10
2022-11-27T02:04:13.116Z,0.20
2022-11-27T02:05:13.102Z,0.10
2022-11-27T02:06:13.090Z,0.20
2022-11-27T02:07:13.198Z,0.20
2022-11-27T02:08:13.060Z,0.20
2022-11-27T02:09:13.050Z,0.10
2022-11-27T02:10:13.035Z,0.20
2022-11-27T02:11:13.024Z,0.20
2022-11-27T02:12:13.009Z,0.20
2022-11-27T02:13:13.026Z,0.20
2022-11-27T02:14:12.984Z,0.20
2022-11-27T02:15:12.972Z,0.10
2022-11-27T02:16:17.837Z,0.20
2022-11-27T02:17:12.947Z,0.20
2022-11-27T02:18:12.934Z,0.20
2022-11-27T02:19:12.921Z,0.20
2022-11-27T02:20:12.905Z,0.10
2022-11-27T02:21:12.914Z,0.20
2022-11-27T02:22:12.880Z,0.10
2022-11-27T02:23:12.871Z,0.20
2022-11-27T02:24:12.857Z,0.10
2022-11-27T02:25:12.845Z,0.10
2022-11-27T02:26:12.829Z,0.20
2022-11-27T02:27:12.817Z,0.10
2022-11-27T02:28:12.804Z,0.20
2022-11-27T02:29:12.795Z,0.20
2022-11-27T02:30:12.778Z,0.20
2022-11-27T02:32:12.753Z,0.20
2022-11-27T02:33:12.745Z,0.20
2022-11-27T02:34:12.727Z,0.20
2022-11-27T02:35:12.715Z,0.10
2022-11-27T02:36:12.701Z,0.10
2022-11-27T02:37:12.689Z,0.20
2022-11-27T02:38:12.675Z,0.20
2022-11-27T02:39:12.665Z,0.20
2022-11-27T02:40:12.650Z,0.20
2022-11-27T02:41:12.639Z,0.10
2022-11-27T02:42:12.745Z,0.20
2022-11-27T02:43:12.613Z,0.10
2022-11-27T02:44:12.598Z,0.20
2022-11-27T02:45:12.587Z,0.10
2022-11-27T02:46:12.622Z,0.20
2022-11-27T02:47:12.563Z,0.10
2022-11-27T02:48:12.547Z,0.20
2022-11-27T02:49:12.535Z,0.10
2022-11-27T02:50:12.523Z,0.20
2022-11-27T02:51:12.510Z,0.10
2022-11-27T02:52:12.495Z,0.20
2022-11-27T02:53:12.485Z,0.20
2022-11-27T02:54:12.470Z,0.10
2022-11-27T02:55:12.458Z,0.10
2022-11-27T02:56:12.444Z,0.20
2022-11-27T02:57:12.432Z,0.20
2022-11-27T02:58:12.538Z,0.10
2022-11-27T02:59:12.409Z,0.20
2022-11-27T03:00:12.394Z,0.10
2022-11-27T03:01:12.383Z,0.10
2022-11-27T03:02:12.458Z,0.10
2022-11-27T03:03:12.381Z,0.20
2022-11-27T03:04:12.341Z,0.10
2022-11-27T03:05:12.329Z,0.10
2022-11-27T03:06:12.315Z,0.10
2022-11-27T03:07:12.385Z,0.20
2022-11-27T03:08:12.289Z,0.10
2022-11-27T03:09:12.278Z,0.20
2022-11-27T03:10:12.264Z,0.10
2022-11-27T03:11:12.254Z,0.10
2022-11-27T03:12:12.244Z,0.10
2022-11-27T03:13:12.227Z,0.10
2022-11-27T03:14:12.335Z,0.20
2022-11-27T03:15:12.202Z,0.10
2022-11-27T03:16:12.280Z,0.20
2022-11-27T03:17:12.174Z,0.10
2022-11-27T03:18:12.160Z,0.20
2022-11-27T03:19:12.150Z,0.20
2022-11-27T03:20:12.136Z,0.20
2022-11-27T03:21:12.123Z,0.10
2022-11-27T03:22:12.109Z,0.20
2022-11-27T03:23:12.099Z,0.10
2022-11-27T03:24:12.084Z,0.20
2022-11-27T03:25:12.073Z,0.20
2022-11-27T03:26:12.058Z,0.20
2022-11-27T03:27:12.046Z,0.20
2022-11-27T03:28:12.032Z,0.20
2022-11-27T03:29:12.023Z,0.10
2022-11-27T03:30:12.135Z,0.20
2022-11-27T03:31:12.024Z,0.10
2022-11-27T03:33:11.969Z,0.20
2022-11-27T03:34:11.955Z,0.10
2022-11-27T03:35:11.943Z,0.20
2022-11-27T03:36:11.930Z,0.10
2022-11-27T03:37:11.917Z,0.10
2022-11-27T03:38:11.906Z,0.10
2022-11-27T03:39:11.895Z,0.10
2022-11-27T03:40:11.878Z,0.20
2022-11-27T03:41:11.867Z,0.10
2022-11-27T03:42:11.858Z,0.20
2022-11-27T03:43:11.841Z,0.10
2022-11-27T03:44:11.827Z,0.20
2022-11-27T03:45:11.816Z,0.10
2022-11-27T03:46:11.961Z,0.20
2022-11-27T03:47:11.863Z,0.20
2022-11-27T03:48:11.777Z,0.20
2022-11-27T03:49:11.764Z,0.20
2022-11-27T03:50:11.751Z,0.10
2022-11-27T03:51:11.750Z,0.20
2022-11-27T03:52:11.725Z,0.20
2022-11-27T03:53:11.716Z,0.20
2022-11-27T03:54:11.701Z,0.20
2022-11-27T03:55:11.691Z,0.20
2022-11-27T03:56:11.673Z,0.20
2022-11-27T03:57:11.663Z,0.20
2022-11-27T03:58:11.648Z,0.20
2022-11-27T03:59:11.636Z,0.20
2022-11-27T04:00:11.621Z,0.10
2022-11-27T04:01:11.627Z,0.20
2022-11-27T04:02:11.784Z,0.10
2022-11-27T04:03:11.591Z,0.20
2022-11-27T04:04:11.609Z,0.20
2022-11-27T04:05:11.558Z,0.20
2022-11-27T04:06:11.549Z,0.20
2022-11-27T04:07:11.607Z,0.20
2022-11-27T04:08:11.519Z,0.20
2022-11-27T04:09:11.508Z,0.10
2022-11-27T04:10:11.493Z,0.20
2022-11-27T04:11:11.481Z,0.20
2022-11-27T04:12:11.471Z,0.20
2022-11-27T04:13:11.455Z,0.20
2022-11-27T04:14:11.441Z,0.20
2022-11-27T04:15:11.432Z,0.20
2022-11-27T04:16:11.518Z,0.20
2022-11-27T04:17:11.404Z,0.20
2022-11-27T04:18:11.509Z,0.20
2022-11-27T04:19:11.378Z,0.20
2022-11-27T04:20:11.365Z,0.10
2022-11-27T04:21:11.352Z,0.20
2022-11-27T04:22:11.340Z,0.10
2022-11-27T04:23:11.328Z,0.20
2022-11-27T04:24:11.314Z,0.10
2022-11-27T04:25:11.301Z,0.20
2022-11-27T04:26:11.288Z,0.10
2022-11-27T04:27:11.275Z,0.20
2022-11-27T04:28:11.263Z,0.10
2022-11-27T04:29:11.248Z,0.20
2022-11-27T04:30:11.237Z,0.20
2022-11-27T04:31:11.246Z,0.20
2022-11-27T04:32:11.211Z,0.20
2022-11-27T04:34:11.301Z,0.20
2022-11-27T04:35:11.171Z,0.10
2022-11-27T04:36:11.160Z,0.20
2022-11-27T04:37:11.147Z,0.10
2022-11-27T04:38:11.134Z,0.20
2022-11-27T04:39:11.120Z,0.20
2022-11-27T04:40:11.108Z,0.20
2022-11-27T04:41:11.095Z,0.20
2022-11-27T04:42:11.091Z,0.20
2022-11-27T04:43:11.069Z,0.20
2022-11-27T04:44:11.057Z,0.20
2022-11-27T04:45:11.045Z,0.20
2022-11-27T04:46:11.061Z,0.20
2022-11-27T04:47:11.017Z,0.10
2022-11-27T04:48:11.007Z,0.20
2022-11-27T04:49:10.992Z,0.10
2022-11-27T04:50:11.100Z,0.20
2022-11-27T04:51:10.966Z,0.10
2022-11-27T04:52:10.954Z,0.20
2022-11-27T04:53:10.941Z,0.10
2022-11-27T04:54:10.931Z,0.20
2022-11-27T04:55:10.915Z,0.20
2022-11-27T04:56:10.904Z,0.20
2022-11-27T04:57:10.889Z,0.20
2022-11-27T04:58:10.879Z,0.10
2022-11-27T04:59:10.863Z,0.20
2022-11-27T05:00:10.853Z,0.20
2022-11-27T05:01:10.905Z,0.20
2022-11-27T05:02:10.828Z,0.10
2022-11-27T05:03:10.918Z,0.20
2022-11-27T05:04:10.800Z,0.10
2022-11-27T05:05:10.785Z,0.20
2022-11-27T05:06:10.893Z,0.10
2022-11-27T05:07:10.773Z,0.20
2022-11-27T05:08:10.748Z,0.10
2022-11-27T05:09:10.736Z,0.20
2022-11-27T05:10:10.723Z,0.20
2022-11-27T05:11:10.711Z,0.20
2022-11-27T05:12:10.698Z,0.20
2022-11-27T05:13:10.683Z,0.20
2022-11-27T05:14:10.672Z,0.20
2022-11-27T05:15:10.657Z,0.10
2022-11-27T05:16:10.743Z,0.20
2022-11-27T05:17:10.639Z,0.10
2022-11-27T05:18:10.620Z,0.20
2022-11-27T05:19:10.607Z,0.20
2022-11-27T05:20:10.600Z,0.20
2022-11-27T05:21:10.585Z,0.20
2022-11-27T05:22:10.686Z,0.20
2022-11-27T05:23:10.556Z,0.10
2022-11-27T05:24:10.544Z,0.20
2022-11-27T05:25:10.532Z,0.20
2022-11-27T05:26:10.519Z,0.20
2022-11-27T05:27:10.504Z,0.20
2022-11-27T05:28:10.495Z,0.10
2022-11-27T05:29:10.478Z,0.20
2022-11-27T05:30:10.493Z,0.10
2022-11-27T05:31:10.533Z,0.20
2022-11-27T05:32:10.442Z,0.20
2022-11-27T05:33:10.427Z,0.20
2022-11-27T05:35:10.401Z,0.20
2022-11-27T05:36:10.397Z,0.10
2022-11-27T05:37:12.879Z,0.20
2022-11-27T05:38:16.346Z,0.10
2022-11-27T05:39:10.466Z,0.20
2022-11-27T05:40:10.340Z,0.10
2022-11-27T05:41:10.323Z,0.20
2022-11-27T05:42:10.314Z,0.10
2022-11-27T05:43:10.298Z,0.20
2022-11-27T05:44:10.288Z,0.10
2022-11-27T05:45:10.278Z,0.20
2022-11-27T05:46:10.300Z,0.20
2022-11-27T05:47:10.252Z,0.20
2022-11-27T05:48:10.241Z,0.20
2022-11-27T05:49:10.221Z,0.20
2022-11-27T05:50:10.210Z,0.20
2022-11-27T05:51:10.196Z,0.20
2022-11-27T05:52:10.184Z,0.20
2022-11-27T05:53:10.170Z,0.10
2022-11-27T05:54:10.160Z,0.20
2022-11-27T05:55:10.261Z,0.10
2022-11-27T05:56:10.135Z,0.20
2022-11-27T05:57:10.121Z,0.20
2022-11-27T05:58:10.126Z,0.20
2022-11-27T05:59:10.098Z,0.20
2022-11-27T06:00:10.084Z,0.20
2022-11-27T06:01:10.068Z,0.20
2022-11-27T06:02:12.859Z,0.20
2022-11-27T06:03:10.110Z,0.20
2022-11-27T06:04:10.033Z,0.10
2022-11-27T06:05:10.018Z,0.20
2022-11-27T06:06:10.007Z,0.20
2022-11-27T06:07:10.105Z,0.20
2022-11-27T06:08:09.983Z,0.10
2022-11-27T06:09:13.074Z,0.20
2022-11-27T06:10:09.958Z,0.10
2022-11-27T06:11:10.062Z,0.20
2022-11-27T06:12:09.931Z,0.10
2022-11-27T06:13:09.915Z,0.20
2022-11-27T06:14:09.909Z,0.20
2022-11-27T06:15:09.889Z,0.20
2022-11-27T06:16:09.946Z,0.10
2022-11-27T06:17:09.864Z,0.20
2022-11-27T06:18:09.853Z,0.20
2022-11-27T06:19:09.846Z,0.20
2022-11-27T06:20:09.828Z,0.10
2022-11-27T06:21:09.813Z,0.10
2022-11-27T06:22:09.803Z,0.20
2022-11-27T06:23:09.789Z,0.20
2022-11-27T06:24:09.779Z,0.20
2022-11-27T06:25:09.779Z,0.20
2022-11-27T06:26:09.755Z,0.20
2022-11-27T06:27:09.858Z,0.20
2022-11-27T06:28:09.728Z,0.20
2022-11-27T06:29:09.712Z,0.20
2022-11-27T06:30:09.706Z,0.20
2022-11-27T06:31:14.490Z,0.10
2022-11-27T06:32:09.752Z,0.20
2022-11-27T06:33:09.671Z,0.20
2022-11-27T06:34:09.655Z,0.20
2022-11-27T06:36:09.626Z,0.20
2022-11-27T06:37:13.129Z,0.20
2022-11-27T06:38:09.605Z,0.20
2022-11-27T06:39:09.586Z,0.20
2022-11-27T06:40:09.578Z,0.20
2022-11-27T06:41:09.562Z,0.20
2022-11-27T06:42:09.547Z,0.20
2022-11-27T06:43:09.654Z,0.10
2022-11-27T06:44:09.524Z,0.20
2022-11-27T06:45:09.525Z,0.20
2022-11-27T06:46:09.593Z,0.20
2022-11-27T06:47:09.490Z,0.10
2022-11-27T06:48:09.472Z,0.20
2022-11-27T06:49:09.457Z,32.70
2022-11-27T06:50:09.452Z,0.50
2022-11-27T06:51:09.431Z,0.40
2022-11-27T06:52:09.420Z,0.60
2022-11-27T06:53:09.406Z,0.40
2022-11-27T06:54:09.394Z,0.50
2022-11-27T06:55:09.381Z,0.40
2022-11-27T06:56:09.372Z,0.50
2022-11-27T06:57:09.354Z,0.40
2022-11-27T06:58:09.344Z,0.50
2022-11-27T06:59:09.448Z,35.90
2022-11-27T07:00:09.318Z,0.50
2022-11-27T07:01:09.350Z,0.40
2022-11-27T07:02:09.378Z,0.40
2022-11-27T07:03:09.278Z,0.40
2022-11-27T07:04:09.267Z,0.50
2022-11-27T07:05:09.253Z,0.30
2022-11-27T07:06:09.241Z,0.50
2022-11-27T07:07:09.225Z,0.30
2022-11-27T07:08:09.333Z,0.50
2022-11-27T07:09:09.198Z,0.30
2022-11-27T07:10:09.189Z,66.40
2022-11-27T07:11:09.171Z,0.40
2022-11-27T07:12:09.160Z,0.50
2022-11-27T07:13:09.144Z,0.40
2022-11-27T07:14:09.133Z,0.50
2022-11-27T07:15:09.235Z,0.40
2022-11-27T07:16:09.134Z,0.50
2022-11-27T07:17:09.091Z,0.40
2022-11-27T07:18:09.080Z,0.50
2022-11-27T07:19:09.064Z,0.30
2022-11-27T07:20:09.052Z,0.50
2022-11-27T07:21:09.037Z,61.09
2022-11-27T07:22:09.024Z,62.20
2022-11-27T07:23:09.010Z,60.59
2022-11-27T07:24:08.998Z,60.20
2022-11-27T07:25:08.984Z,60.09
2022-11-27T07:26:08.972Z,57.79
2022-11-27T07:27:08.961Z,57.29
2022-11-27T07:28:08.946Z,55.50
2022-11-27T07:29:08.931Z,54.70
2022-11-27T07:30:08.920Z,53.70
2022-11-27T07:31:09.129Z,53.40
2022-11-27T07:32:08.893Z,52.79
2022-11-27T07:33:08.879Z,52.29
2022-11-27T07:34:15.056Z,51.79
2022-11-27T07:35:08.854Z,52.59
2022-11-27T07:37:08.831Z,53.00
2022-11-27T07:38:08.817Z,52.29
2022-11-27T07:39:08.802Z,51.40
2022-11-27T07:40:08.791Z,49.59
2022-11-27T07:41:08.776Z,51.29
2022-11-27T07:42:37.001Z,50.79
2022-11-27T07:43:10.752Z,49.20
2022-11-27T07:44:08.739Z,49.90
2022-11-27T07:45:08.725Z,50.09
2022-11-27T07:46:08.788Z,49.79
2022-11-27T07:47:08.820Z,49.50
2022-11-27T07:48:08.688Z,50.40
2022-11-27T07:49:08.676Z,51.79
2022-11-27T07:50:08.666Z,53.70
2022-11-27T07:51:08.652Z,56.40
2022-11-27T07:52:08.636Z,58.70
2022-11-27T07:53:08.625Z,57.20
2022-11-27T07:54:08.611Z,56.79
2022-11-27T07:55:08.598Z,57.59
2022-11-27T07:56:08.586Z,57.70
2022-11-27T07:57:08.572Z,56.09
2022-11-27T07:58:08.564Z,55.70
2022-11-27T07:59:08.546Z,54.59
2022-11-27T08:00:08.537Z,55.00
2022-11-27T08:01:08.611Z,52.50
2022-11-27T08:02:08.508Z,51.00
2022-11-27T08:03:08.642Z,51.20
2022-11-27T08:04:08.534Z,52.29
2022-11-27T08:05:12.627Z,52.79
2022-11-27T08:06:08.455Z,52.79
2022-11-27T08:07:08.441Z,56.50
2022-11-27T08:08:08.428Z,54.50
2022-11-27T08:09:08.412Z,54.29
2022-11-27T08:10:08.401Z,56.79
2022-11-27T08:11:08.384Z,56.20
2022-11-27T08:12:08.374Z,55.40
2022-11-27T08:13:08.359Z,54.59
2022-11-27T08:14:08.350Z,49.40
2022-11-27T08:15:08.332Z,48.20
2022-11-27T08:16:08.346Z,48.29
2022-11-27T08:17:08.306Z,47.90
2022-11-27T08:18:08.296Z,48.70
2022-11-27T08:19:08.406Z,48.20
2022-11-27T08:20:08.270Z,48.29
2022-11-27T08:21:08.255Z,48.00
2022-11-27T08:22:08.245Z,46.00
2022-11-27T08:23:08.230Z,46.29
2022-11-27T08:24:08.219Z,47.20
2022-11-27T08:25:08.204Z,47.90
2022-11-27T08:26:08.199Z,46.29
2022-11-27T08:27:08.182Z,44.70
2022-11-27T08:28:08.168Z,45.09
2022-11-27T08:29:08.151Z,46.40
2022-11-27T08:30:08.142Z,48.09
2022-11-27T08:31:08.126Z,48.09
2022-11-27T08:32:08.215Z,49.20
2022-11-27T08:33:08.104Z,48.79
2022-11-27T08:34:08.088Z,48.40
2022-11-27T08:35:08.193Z,48.70
2022-11-27T08:36:10.577Z,48.70
2022-11-27T08:38:08.036Z,52.79
2022-11-27T08:39:08.024Z,52.90
2022-11-27T08:40:08.011Z,52.40
2022-11-27T08:41:07.999Z,50.50
2022-11-27T08:42:07.984Z,49.29
2022-11-27T08:43:07.972Z,48.59
2022-11-27T08:44:09.412Z,51.40
2022-11-27T08:45:07.947Z,51.50
2022-11-27T08:46:08.058Z,53.59
2022-11-27T08:47:07.922Z,52.59
2022-11-27T08:48:07.907Z,54.90
2022-11-27T08:49:07.896Z,58.09
2022-11-27T08:50:07.882Z,57.70
2022-11-27T08:51:07.986Z,53.90
2022-11-27T08:52:07.855Z,52.90
2022-11-27T08:53:07.846Z,54.29
2022-11-27T08:54:07.829Z,54.79
2022-11-27T08:55:07.819Z,53.09
2022-11-27T08:56:07.804Z,54.09
2022-11-27T08:57:07.798Z,54.59
2022-11-27T08:58:07.786Z,57.40
2022-11-27T08:59:07.765Z,54.29
2022-11-27T09:00:07.751Z,53.50
2022-11-27T09:01:07.850Z,54.59
2022-11-27T09:02:07.724Z,56.20
2022-11-27T09:03:07.713Z,55.29
2022-11-27T09:04:07.769Z,54.40
2022-11-27T09:05:07.689Z,53.20
2022-11-27T09:06:07.672Z,56.09
2022-11-27T09:07:07.780Z,61.59
2022-11-27T09:08:07.648Z,63.09
2022-11-27T09:09:07.634Z,59.40
2022-11-27T09:10:07.620Z,59.50
2022-11-27T09:11:07.608Z,59.79
2022-11-27T09:12:07.595Z,63.70
2022-11-27T09:13:07.584Z,69.00
2022-11-27T09:14:07.569Z,73.50
2022-11-27T09:15:07.557Z,73.59
2022-11-27T09:16:07.592Z,73.00
2022-11-27T09:17:07.533Z,76.40
2022-11-27T09:18:07.580Z,80.00
2022-11-27T09:19:07.507Z,87.19
2022-11-27T09:20:07.492Z,90.40
2022-11-27T09:21:07.478Z,92.30
2022-11-27T09:22:07.467Z,91.09
2022-11-27T09:23:12.938Z,93.40
2022-11-27T09:24:09.438Z,95.90
2022-11-27T09:25:07.428Z,96.69
2022-11-27T09:26:07.414Z,95.50
2022-11-27T09:27:07.401Z,95.80
2022-11-27T09:28:07.401Z,90.69
2022-11-27T09:29:07.375Z,92.30
2022-11-27T09:30:07.361Z,94.19
2022-11-27T09:31:07.348Z,94.80
2022-11-27T09:32:07.413Z,92.59
2022-11-27T09:33:07.326Z,89.69
2022-11-27T09:34:07.313Z,86.40
2022-11-27T09:35:07.370Z,95.59
2022-11-27T09:36:07.286Z,96.00
2022-11-27T09:37:07.272Z,95.00
2022-11-27T09:39:07.365Z,92.40
2022-11-27T09:40:07.231Z,93.59
2022-11-27T09:41:07.219Z,92.40
2022-11-27T09:42:07.206Z,87.59
2022-11-27T09:43:07.193Z,86.80
2022-11-27T09:44:07.179Z,91.40
2022-11-27T09:45:07.167Z,91.30
2022-11-27T09:46:07.207Z,89.50
2022-11-27T09:47:07.141Z,88.59
2022-11-27T09:48:07.124Z,89.00
2022-11-27T09:49:07.114Z,85.59
2022-11-27T09:50:07.099Z,81.69
2022-11-27T09:51:07.088Z,74.80
2022-11-27T09:52:07.072Z,86.69
2022-11-27T09:53:07.059Z,87.90
2022-11-27T09:54:07.046Z,90.50
2022-11-27T09:55:07.244Z,83.09
2022-11-27T09:56:07.020Z,91.19
2022-11-27T09:57:07.007Z,85.30
2022-11-27T09:58:07.034Z,87.80
2022-11-27T09:59:06.985Z,87.90
2022-11-27T10:00:06.966Z,88.50
2022-11-27T10:01:07.025Z,89.80
2022-11-27T10:02:07.049Z,95.09
2022-11-27T10:03:07.088Z,95.50
2022-11-27T10:04:06.915Z,94.90
2022-11-27T10:05:13.937Z,93.69
2022-11-27T10:06:08.889Z,92.40
2022-11-27T10:07:06.877Z,88.00
2022-11-27T10:08:07.478Z,85.50
2022-11-27T10:09:06.851Z,80.90
2022-11-27T10:10:06.837Z,77.50
2022-11-27T10:11:06.947Z,73.80
2022-11-27T10:12:06.810Z,73.00
2022-11-27T10:13:06.799Z,68.80
2022-11-27T10:14:06.785Z,59.20
2022-11-27T10:15:06.774Z,58.00
2022-11-27T10:16:06.811Z,58.59
2022-11-27T10:17:06.787Z,58.20
2022-11-27T10:18:06.733Z,58.09
2022-11-27T10:19:06.721Z,58.40
2022-11-27T10:20:06.706Z,60.79
2022-11-27T10:21:06.695Z,63.29
2022-11-27T10:22:06.684Z,60.20
2022-11-27T10:23:06.673Z,62.90
2022-11-27T10:24:06.656Z,66.09
2022-11-27T10:25:06.645Z,69.50
2022-11-27T10:26:06.636Z,72.40
2022-11-27T10:27:06.736Z,74.59
2022-11-27T10:28:06.684Z,74.00
2022-11-27T10:29:06.594Z,73.50
2022-11-27T10:30:06.576Z,74.40
2022-11-27T10:31:06.565Z,75.59
2022-11-27T10:32:06.618Z,79.40
2022-11-27T10:33:06.609Z,80.59
2022-11-27T10:34:06.525Z,81.40
2022-11-27T10:35:06.514Z,85.40
2022-11-27T10:36:06.500Z,84.59
2022-11-27T10:37:06.488Z,86.80
2022-11-27T10:38:07.329Z,87.80
2022-11-27T10:40:06.453Z,89.00
2022-11-27T10:41:07.784Z,88.00
2022-11-27T10:42:06.427Z,89.40
2022-11-27T10:43:06.529Z,88.90
2022-11-27T10:44:06.397Z,89.50
2022-11-27T10:45:06.387Z,89.59
2022-11-27T10:46:06.433Z,93.19
2022-11-27T10:47:06.359Z,91.50
2022-11-27T10:48:06.345Z,88.09
2022-11-27T10:49:06.334Z,87.40
2022-11-27T10:50:06.317Z,83.09
2022-11-27T10:51:06.308Z,79.30
2022-11-27T10:52:06.293Z,78.00
2022-11-27T10:53:06.281Z,73.50
2022-11-27T10:54:06.266Z,73.50
2022-11-27T10:55:06.255Z,76.40
2022-11-27T10:56:06.255Z,69.50
2022-11-27T10:57:06.230Z,70.00
2022-11-27T10:58:06.216Z,72.90
2022-11-27T10:59:06.326Z,69.90
2022-11-27T11:00:06.206Z,72.80
2022-11-27T11:01:06.237Z,70.90
2022-11-27T11:02:06.271Z,70.50
2022-11-27T11:03:06.151Z,69.09
2022-11-27T11:04:24.316Z,68.40
2022-11-27T11:05:31.154Z,64.69
2022-11-27T11:06:23.974Z,60.29
2022-11-27T11:07:08.100Z,61.79
2022-11-27T11:08:06.085Z,62.90
2022-11-27T11:09:06.078Z,61.79
2022-11-27T11:10:06.058Z,61.79
2022-11-27T11:11:06.047Z,67.09
2022-11-27T11:12:06.031Z,72.90
2022-11-27T11:13:06.020Z,80.59
2022-11-27T11:14:06.007Z,82.69
2022-11-27T11:15:06.122Z,87.00
2022-11-27T11:16:06.097Z,85.19
2022-11-27T11:17:06.024Z,87.19
2022-11-27T11:18:05.954Z,86.19
2022-11-27T11:19:05.943Z,86.50
2022-11-27T11:20:05.927Z,85.69
2022-11-27T11:21:05.917Z,81.90
2022-11-27T11:22:09.136Z,77.00
2022-11-27T11:23:05.891Z,81.69
2022-11-27T11:24:05.875Z,83.19
2022-11-27T11:25:05.864Z,85.19
2022-11-27T11:26:05.849Z,86.09
2022-11-27T11:27:05.838Z,84.00
2022-11-27T11:28:05.822Z,84.09
2022-11-27T11:29:05.814Z,82.19
2022-11-27T11:30:05.802Z,80.50
2022-11-27T11:31:05.902Z,77.50
2022-11-27T11:32:05.853Z,75.69
2022-11-27T11:33:05.760Z,72.40
2022-11-27T11:34:05.747Z,70.09
2022-11-27T11:35:05.736Z,70.90
2022-11-27T11:36:05.719Z,68.19
2022-11-27T11:37:05.711Z,59.90
2022-11-27T11:38:05.697Z,59.50
2022-11-27T11:39:05.684Z,61.50
2022-11-27T11:41:05.658Z,65.09
2022-11-27T11:42:05.643Z,62.29
2022-11-27T11:43:05.631Z,64.09
2022-11-27T11:44:05.617Z,69.19
2022-11-27T11:45:05.606Z,68.50
2022-11-27T11:46:05.678Z,69.00
2022-11-27T11:47:05.714Z,69.19
2022-11-27T11:48:05.566Z,70.50
2022-11-27T11:49:05.556Z,70.80
2022-11-27T11:50:05.542Z,74.00
2022-11-27T11:51:05.532Z,75.00
2022-11-27T11:52:05.533Z,68.09
2022-11-27T11:53:05.511Z,71.59
2022-11-27T11:54:05.519Z,74.90
2022-11-27T11:55:05.481Z,72.69
2022-11-27T11:56:05.465Z,72.09
2022-11-27T11:57:05.454Z,73.09
2022-11-27T11:58:05.439Z,67.50
2022-11-27T11:59:05.730Z,67.80
2022-11-27T12:00:05.416Z,72.40
2022-11-27T12:01:25.941Z,75.40
2022-11-27T12:02:05.453Z,71.50
2022-11-27T12:03:05.497Z,81.90
2022-11-27T12:04:05.449Z,81.00
2022-11-27T12:05:05.354Z,76.59
2022-11-27T12:06:05.337Z,73.69
2022-11-27T12:07:05.327Z,71.09
2022-11-27T12:08:05.344Z,69.50
2022-11-27T12:09:05.301Z,67.00
2022-11-27T12:10:05.289Z,68.90
2022-11-27T12:11:05.274Z,68.09
2022-11-27T12:12:05.260Z,67.40
2022-11-27T12:13:05.250Z,63.79
2022-11-27T12:14:05.234Z,62.09
2022-11-27T12:15:05.224Z,58.59
2022-11-27T12:16:05.224Z,53.40
2022-11-27T12:17:05.282Z,50.29
2022-11-27T12:18:05.199Z,47.50
2022-11-27T12:19:05.287Z,46.50
2022-11-27T12:20:05.156Z,46.20
2022-11-27T12:21:05.149Z,48.20
2022-11-27T12:22:05.128Z,48.20
2022-11-27T12:23:05.118Z,44.79
2022-11-27T12:24:05.103Z,43.79
2022-11-27T12:25:05.093Z,42.90
2022-11-27T12:26:05.080Z,41.29
2022-11-27T12:27:05.067Z,42.50
2022-11-27T12:28:05.093Z,43.09
2022-11-27T12:29:05.042Z,41.90
2022-11-27T12:30:05.026Z,42.29
2022-11-27T12:31:05.099Z,42.50
2022-11-27T12:32:05.060Z,42.70
2022-11-27T12:33:04.988Z,44.50
2022-11-27T12:34:04.974Z,45.90
2022-11-27T12:35:05.081Z,45.20
2022-11-27T12:36:04.950Z,46.40
2022-11-27T12:37:05.101Z,45.90
2022-11-27T12:38:04.921Z,44.90
2022-11-27T12:39:04.911Z,44.00
2022-11-27T12:40:04.896Z,44.09
2022-11-27T12:42:04.869Z,46.09
2022-11-27T12:43:04.858Z,44.79
2022-11-27T12:44:04.843Z,44.59
2022-11-27T12:45:04.834Z,44.59
2022-11-27T12:46:04.857Z,46.70
2022-11-27T12:47:04.806Z,47.29
2022-11-27T12:48:04.791Z,47.70
2022-11-27T12:49:04.783Z,47.00
2022-11-27T12:50:04.766Z,47.20
2022-11-27T12:51:04.869Z,48.20
2022-11-27T12:52:04.742Z,49.59
2022-11-27T12:53:04.728Z,49.50
2022-11-27T12:54:04.717Z,49.50
2022-11-27T12:55:04.702Z,49.70
2022-11-27T12:56:04.692Z,55.20
2022-11-27T12:57:04.676Z,59.09
2022-11-27T12:58:04.666Z,57.59
2022-11-27T12:59:04.650Z,56.00
2022-11-27T13:00:04.639Z,54.29
2022-11-27T13:01:04.728Z,53.29
2022-11-27T13:02:04.775Z,52.79
2022-11-27T13:03:04.598Z,51.70
2022-11-27T13:04:04.588Z,50.09
2022-11-27T13:05:04.572Z,50.00
2022-11-27T13:06:04.562Z,49.20
2022-11-27T13:07:04.663Z,47.09
2022-11-27T13:08:04.602Z,46.50
2022-11-27T13:09:04.522Z,44.90
2022-11-27T13:10:04.516Z,45.00
2022-11-27T13:11:04.495Z,44.90
2022-11-27T13:12:04.484Z,41.90
2022-11-27T13:13:04.471Z,42.79
2022-11-27T13:14:04.459Z,41.20
2022-11-27T13:15:04.449Z,40.50
2022-11-27T13:16:04.524Z,39.79
2022-11-27T13:17:04.419Z,42.90
2022-11-27T13:18:04.407Z,40.90
2022-11-27T13:19:04.392Z,42.40